createdAt,value
2023-03-13T00:01:22.067Z,12.10
2023-03-13T00:03:50.405Z,12.20
2023-03-13T00:06:18.870Z,12.30
2023-03-13T00:08:46.986Z,12.30
2023-03-13T00:11:16.347Z,12.30
2023-03-13T00:13:44.672Z,12.30
2023-03-13T00:16:16.705Z,12.30
2023-03-13T00:18:48.882Z,12.10
2023-03-13T00:21:17.847Z,12.10
2023-03-13T00:23:46.502Z,12.30
2023-03-13T00:26:16.891Z,12.30
2023-03-13T00:28:46.126Z,12.40
2023-03-13T00:31:17.166Z,12.50
2023-03-13T00:33:46.888Z,12.50
2023-03-13T00:36:17.045Z,12.50
2023-03-13T00:38:45.753Z,12.50
2023-03-13T00:41:15.860Z,12.50
2023-03-13T00:43:45.571Z,12.40
2023-03-13T00:46:20.508Z,12.60
2023-03-13T00:48:50.949Z,12.70
2023-03-13T00:51:21.879Z,12.70
2023-03-13T00:53:51.659Z,12.80
2023-03-13T00:56:21.829Z,12.80
2023-03-13T00:58:52.232Z,12.70
2023-03-13T01:01:23.623Z,12.80
2023-03-13T01:03:53.996Z,12.80
2023-03-13T01:06:24.402Z,12.90
2023-03-13T01:08:53.448Z,13.00
2023-03-13T01:11:23.196Z,13.10
2023-03-13T01:13:54.626Z,13.10
2023-03-13T01:16:25.228Z,13.30
2023-03-13T01:18:55.692Z,13.30
2023-03-13T01:21:25.634Z,13.30
2023-03-13T01:23:55.411Z,13.30
2023-03-13T01:26:24.563Z,13.30
2023-03-13T01:28:53.053Z,13.30
2023-03-13T01:31:24.336Z,13.30
2023-03-13T01:33:55.247Z,13.30
2023-03-13T01:36:24.129Z,13.30
2023-03-13T01:38:53.736Z,13.30
2023-03-13T01:41:23.523Z,13.30
2023-03-13T01:43:51.846Z,13.20
2023-03-13T01:46:21.529Z,13.30
2023-03-13T01:48:54.298Z,13.20
2023-03-13T01:51:25.611Z,13.10
2023-03-13T01:54:01.036Z,13.10
2023-03-13T01:56:37.315Z,13.10
2023-03-13T01:59:15.032Z,13.10
2023-03-13T02:01:47.101Z,13.10
2023-03-13T02:04:25.356Z,13.10
2023-03-13T02:06:59.840Z,13.00
2023-03-13T02:09:36.143Z,12.90
2023-03-13T02:12:08.776Z,12.90
2023-03-13T02:14:43.558Z,12.80
2023-03-13T02:17:12.536Z,12.90
2023-03-13T02:19:49.559Z,12.90
2023-03-13T02:22:30.260Z,12.90
2023-03-13T02:25:10.788Z,12.90
2023-03-13T02:27:44.646Z,12.90
2023-03-13T02:30:18.401Z,12.90
2023-03-13T02:32:50.608Z,12.90
2023-03-13T02:35:22.380Z,13.00
2023-03-13T02:38:00.351Z,13.10
2023-03-13T02:40:34.490Z,13.10
2023-03-13T02:43:16.061Z,13.00
2023-03-13T02:45:44.178Z,13.00
2023-03-13T02:48:13.958Z,12.90
2023-03-13T02:50:43.737Z,13.00
2023-03-13T02:53:12.027Z,12.90
2023-03-13T02:55:42.639Z,12.90
2023-03-13T02:58:12.155Z,13.00
2023-03-13T03:00:48.642Z,13.00
2023-03-13T03:03:18.008Z,12.90
2023-03-13T03:05:48.783Z,13.00
2023-03-13T03:08:19.544Z,13.00
2023-03-13T03:10:49.466Z,13.00
2023-03-13T03:13:19.263Z,13.00
2023-03-13T03:15:49.533Z,12.90
2023-03-13T03:18:20.331Z,13.00
2023-03-13T03:20:48.416Z,13.00
2023-03-13T03:23:19.826Z,12.90
2023-03-13T03:25:50.142Z,12.90
2023-03-13T03:28:24.825Z,12.90
2023-03-13T03:30:55.022Z,12.90
2023-03-13T03:33:26.100Z,12.90
2023-03-13T03:36:03.978Z,12.90
2023-03-13T03:38:35.084Z,12.90
2023-03-13T03:41:05.443Z,12.80
2023-03-13T03:43:43.017Z,12.80
2023-03-13T03:46:13.978Z,12.80
2023-03-13T03:48:48.771Z,12.80
2023-03-13T03:51:19.093Z,12.90
2023-03-13T03:53:49.502Z,12.90
2023-03-13T03:56:19.398Z,12.90
2023-03-13T03:58:48.902Z,13.00
2023-03-13T04:01:17.383Z,12.90
2023-03-13T04:03:56.379Z,12.80
2023-03-13T04:06:25.843Z,12.80
2023-03-13T04:08:55.911Z,12.60
2023-03-13T04:11:24.176Z,12.60
2023-03-13T04:13:53.702Z,12.60
2023-03-13T04:19:07.828Z,12.50
2023-03-13T04:21:38.142Z,12.60
2023-03-13T04:24:09.005Z,12.70
2023-03-13T04:26:38.546Z,12.60
2023-03-13T04:29:10.236Z,12.60
2023-03-13T04:31:40.419Z,12.70
2023-03-13T04:34:11.798Z,12.80
2023-03-13T04:36:40.382Z,12.80
2023-03-13T04:39:11.141Z,12.80
2023-03-13T04:41:40.334Z,12.80
2023-03-13T04:44:13.393Z,12.80
2023-03-13T04:46:45.223Z,12.90
2023-03-13T04:52:00.414Z,13.10
2023-03-13T04:54:31.058Z,13.10
2023-03-13T04:57:00.313Z,13.10
2023-03-13T04:59:30.470Z,13.20
2023-03-13T05:02:00.992Z,13.30
2023-03-13T05:04:30.513Z,13.30
2023-03-13T05:07:00.137Z,13.20
2023-03-13T05:09:28.680Z,13.20
2023-03-13T05:12:00.385Z,13.00
2023-03-13T05:14:33.661Z,13.00
2023-03-13T05:17:01.766Z,12.80
2023-03-13T05:19:31.487Z,12.80
2023-03-13T05:22:03.513Z,12.80
2023-03-13T05:24:33.142Z,12.80
2023-03-13T05:27:10.597Z,12.80
2023-03-13T05:29:42.371Z,12.80
2023-03-13T05:32:19.299Z,12.80
2023-03-13T05:34:51.105Z,12.80
2023-03-13T05:37:21.634Z,12.80
2023-03-13T05:39:57.292Z,12.80
2023-03-13T05:42:29.249Z,12.90
2023-03-13T05:44:58.753Z,12.80
2023-03-13T05:47:27.987Z,12.90
2023-03-13T05:49:57.485Z,12.90
2023-03-13T05:52:30.959Z,12.90
2023-03-13T05:55:00.303Z,13.00
2023-03-13T05:57:29.005Z,13.10
2023-03-13T06:00:06.277Z,13.20
2023-03-13T06:02:35.899Z,13.20
2023-03-13T06:05:04.184Z,13.30
2023-03-13T06:07:38.548Z,13.30
2023-03-13T06:10:08.449Z,13.30
2023-03-13T06:12:36.804Z,13.40
2023-03-13T06:15:12.458Z,13.40
2023-03-13T06:17:42.998Z,13.40
2023-03-13T06:20:13.303Z,13.50
2023-03-13T06:22:42.034Z,13.50
2023-03-13T06:25:13.210Z,13.60
2023-03-13T06:27:42.719Z,13.50
2023-03-13T06:30:18.033Z,13.60
2023-03-13T06:32:49.044Z,13.60
2023-03-13T06:35:21.511Z,13.60
2023-03-13T06:37:53.965Z,13.70
2023-03-13T06:40:23.165Z,13.80
2023-03-13T06:42:54.240Z,13.80
2023-03-13T06:45:43.232Z,13.80
2023-03-13T06:48:12.112Z,13.80
2023-03-13T06:50:42.510Z,13.80
2023-03-13T06:53:16.889Z,13.90
2023-03-13T06:55:47.256Z,13.90
2023-03-13T06:58:29.136Z,13.90
2023-03-13T07:01:05.694Z,13.90
2023-03-13T07:03:36.539Z,13.90
2023-03-13T07:06:08.388Z,13.90
2023-03-13T07:08:38.927Z,14.00
2023-03-13T07:11:09.278Z,14.00
2023-03-13T07:13:37.780Z,14.00
2023-03-13T07:16:11.095Z,14.00
2023-03-13T07:18:41.826Z,14.10
2023-03-13T07:21:12.030Z,14.20
2023-03-13T07:23:41.663Z,14.30
2023-03-13T07:26:14.102Z,14.30
2023-03-13T07:28:44.869Z,14.40
2023-03-13T07:31:21.113Z,14.30
2023-03-13T07:33:52.474Z,14.30
2023-03-13T07:36:22.261Z,14.30
2023-03-13T07:38:54.100Z,14.40
2023-03-13T07:41:26.274Z,14.40
2023-03-13T07:43:59.334Z,14.50
2023-03-13T07:46:29.065Z,14.60
2023-03-13T07:49:00.673Z,14.60
2023-03-13T07:51:42.960Z,14.80
2023-03-13T07:54:12.119Z,14.80
2023-03-13T07:56:53.185Z,14.70
2023-03-13T07:59:23.475Z,14.80
2023-03-13T08:02:10.220Z,14.90
2023-03-13T08:04:44.498Z,15.00
2023-03-13T08:07:15.658Z,15.00
2023-03-13T08:09:51.988Z,14.90
2023-03-13T08:12:30.880Z,15.00
2023-03-13T08:15:03.008Z,15.00
2023-03-13T08:17:36.537Z,15.00
2023-03-13T08:20:17.584Z,14.90
2023-03-13T08:22:46.614Z,15.00
2023-03-13T08:25:19.493Z,15.10
2023-03-13T08:27:51.159Z,15.10
2023-03-13T08:30:19.956Z,15.20
2023-03-13T08:32:55.658Z,15.20
2023-03-13T08:35:29.944Z,15.30
2023-03-13T08:37:58.066Z,15.40
2023-03-13T08:40:26.296Z,15.60
2023-03-13T08:42:55.760Z,15.90
2023-03-13T08:45:23.914Z,16.00
2023-03-13T08:47:55.171Z,16.30
2023-03-13T08:50:23.557Z,16.50
2023-03-13T08:52:51.676Z,16.90
2023-03-13T08:55:19.835Z,16.90
2023-03-13T08:57:47.914Z,16.90
2023-03-13T09:00:17.560Z,16.90
2023-03-13T09:02:45.719Z,16.90
2023-03-13T09:05:15.426Z,17.00
2023-03-13T09:07:43.573Z,16.90
2023-03-13T09:10:12.484Z,17.10
2023-03-13T09:12:41.203Z,17.30
2023-03-13T09:15:10.712Z,17.40
2023-03-13T09:17:38.875Z,17.30
2023-03-13T09:20:08.949Z,17.30
2023-03-13T09:22:38.410Z,17.40
2023-03-13T09:25:07.246Z,17.30
2023-03-13T09:27:35.381Z,17.30
2023-03-13T09:30:03.556Z,17.30
2023-03-13T09:32:31.727Z,17.30
2023-03-13T09:34:59.966Z,17.20
2023-03-13T09:37:28.257Z,17.30
2023-03-13T09:40:01.133Z,17.70
2023-03-13T09:42:46.317Z,17.80
2023-03-13T09:45:20.739Z,17.60
2023-03-13T09:47:56.291Z,17.80
2023-03-13T09:50:30.600Z,17.80
2023-03-13T09:53:06.128Z,18.00
2023-03-13T09:55:38.159Z,18.30
2023-03-13T09:58:14.519Z,18.50
2023-03-13T10:00:45.128Z,18.40
2023-03-13T10:03:18.495Z,18.40
2023-03-13T10:05:50.661Z,18.70
2023-03-13T10:08:20.608Z,18.70
2023-03-13T10:10:54.942Z,18.70
2023-03-13T10:13:29.025Z,18.90
2023-03-13T10:16:00.306Z,18.80
2023-03-13T10:18:28.597Z,18.80
2023-03-13T10:21:00.421Z,19.00
2023-03-13T10:23:39.390Z,19.30
2023-03-13T10:26:16.329Z,19.20
2023-03-13T10:28:44.478Z,19.20
2023-03-13T10:31:18.646Z,19.30
2023-03-13T10:33:46.796Z,19.50
2023-03-13T10:36:15.569Z,19.30
2023-03-13T10:38:51.860Z,19.40
2023-03-13T10:41:28.063Z,19.50
2023-03-13T10:43:59.890Z,19.60
2023-03-13T10:46:30.420Z,19.60
2023-03-13T10:49:02.330Z,19.70
2023-03-13T10:51:38.292Z,19.70
2023-03-13T10:54:17.513Z,19.80
2023-03-13T10:56:47.284Z,20.00
2023-03-13T10:59:25.006Z,20.10
2023-03-13T11:01:54.306Z,20.20
2023-03-13T11:04:31.759Z,20.20
2023-03-13T11:07:04.156Z,20.10
2023-03-13T11:09:33.369Z,20.40
2023-03-13T11:12:06.913Z,20.30
2023-03-13T11:14:36.092Z,20.60
2023-03-13T11:17:11.276Z,20.60
2023-03-13T11:19:47.077Z,20.60
2023-03-13T11:22:42.241Z,20.50
2023-03-13T11:25:28.702Z,20.40
2023-03-13T11:28:13.794Z,20.60
2023-03-13T11:30:51.772Z,20.70
2023-03-13T11:33:29.396Z,20.70
2023-03-13T11:36:04.215Z,20.90
2023-03-13T11:38:36.720Z,20.80
2023-03-13T11:41:20.551Z,20.90
2023-03-13T11:44:06.142Z,21.00
2023-03-13T11:46:43.545Z,20.90
2023-03-13T11:49:30.056Z,21.00
2023-03-13T11:52:09.963Z,21.10
2023-03-13T11:55:19.086Z,21.30
2023-03-13T11:57:57.249Z,21.30
2023-03-13T12:00:33.540Z,21.60
2023-03-13T12:03:07.852Z,21.80
2023-03-13T12:05:45.670Z,21.80
2023-03-13T12:08:21.010Z,21.80
2023-03-13T12:10:54.533Z,22.00
2023-03-13T12:13:28.612Z,22.00
2023-03-13T12:16:02.552Z,22.00
2023-03-13T12:18:35.174Z,21.90
2023-03-13T12:21:08.327Z,21.90
2023-03-13T12:23:47.594Z,21.80
2023-03-13T12:26:18.108Z,21.80
2023-03-13T12:28:52.956Z,21.80
2023-03-13T12:31:27.569Z,22.00
2023-03-13T12:34:03.392Z,22.20
2023-03-13T12:36:39.730Z,22.40
2023-03-13T12:39:22.220Z,22.70
2023-03-13T12:42:02.334Z,22.90
2023-03-13T12:44:31.574Z,22.80
2023-03-13T12:47:09.998Z,22.80
2023-03-13T12:50:20.638Z,22.80
2023-03-13T12:53:39.559Z,23.10
2023-03-13T12:56:30.823Z,23.50
2023-03-13T12:59:03.723Z,23.60
2023-03-13T13:01:35.658Z,23.60
2023-03-13T13:04:08.256Z,23.60
2023-03-13T13:07:01.875Z,23.60
2023-03-13T13:09:31.368Z,23.80
2023-03-13T13:12:04.145Z,23.80
2023-03-13T13:14:58.237Z,24.00
2023-03-13T13:17:34.288Z,23.80
2023-03-13T13:20:37.666Z,23.70
2023-03-13T13:23:33.822Z,23.30
2023-03-13T13:26:47.305Z,23.10
2023-03-13T13:30:00.793Z,23.30
2023-03-13T13:32:46.956Z,23.40
2023-03-13T13:35:33.991Z,23.80
2023-03-13T13:38:23.434Z,23.80
2023-03-13T13:41:02.693Z,23.90
2023-03-13T13:43:33.858Z,23.70
2023-03-13T13:46:17.454Z,23.50
2023-03-13T13:48:45.836Z,23.40
2023-03-13T13:51:37.282Z,23.20
2023-03-13T13:54:09.429Z,23.10
2023-03-13T13:56:42.228Z,23.10
2023-03-13T13:59:42.159Z,23.20
2023-03-13T14:02:23.540Z,23.00
2023-03-13T14:05:01.099Z,22.70
2023-03-13T14:07:38.485Z,22.60
2023-03-13T14:10:15.456Z,22.40
2023-03-13T14:12:48.588Z,22.30
2023-03-13T14:15:19.429Z,22.30
2023-03-13T14:17:49.825Z,22.30
2023-03-13T14:20:22.640Z,22.20
2023-03-13T14:22:53.716Z,21.80
2023-03-13T14:25:22.430Z,21.70
2023-03-13T14:27:51.755Z,21.80
2023-03-13T14:30:21.828Z,22.40
2023-03-13T14:32:51.696Z,23.80
2023-03-13T14:35:22.509Z,23.40
2023-03-13T14:37:54.496Z,22.50
2023-03-13T14:40:26.064Z,22.40
2023-03-13T14:42:56.210Z,23.10
2023-03-13T14:45:29.030Z,23.00
2023-03-13T14:48:02.840Z,22.70
2023-03-13T14:50:31.100Z,22.50
2023-03-13T14:53:05.272Z,23.40
2023-03-13T14:55:36.549Z,23.70
2023-03-13T14:58:07.468Z,23.90
2023-03-13T15:00:39.321Z,24.30
2023-03-13T15:03:21.584Z,24.40
2023-03-13T15:05:51.928Z,24.60
2023-03-13T15:08:26.279Z,24.40
2023-03-13T15:10:54.600Z,24.80
2023-03-13T15:13:26.197Z,25.10
2023-03-13T15:15:54.931Z,24.60
2023-03-13T15:18:24.823Z,24.80
2023-03-13T15:20:54.804Z,25.20
2023-03-13T15:23:24.780Z,25.30
2023-03-13T15:25:52.987Z,25.40
2023-03-13T15:28:22.537Z,25.80
2023-03-13T15:30:52.364Z,26.10
2023-03-13T15:33:23.037Z,26.20
2023-03-13T15:35:51.664Z,25.40
2023-03-13T15:38:21.393Z,24.60
2023-03-13T15:40:51.959Z,23.80
2023-03-13T15:43:21.477Z,23.50
2023-03-13T15:45:51.785Z,23.30
2023-03-13T15:48:22.458Z,23.10
2023-03-13T15:50:51.906Z,22.90
2023-03-13T15:53:21.751Z,22.80
2023-03-13T15:55:53.304Z,22.70
2023-03-13T15:58:21.588Z,22.50
2023-03-13T16:00:50.108Z,22.30
2023-03-13T16:03:20.584Z,22.30
2023-03-13T16:05:49.436Z,22.10
2023-03-13T16:08:34.287Z,22.00
2023-03-13T16:11:05.131Z,22.00
2023-03-13T16:13:33.244Z,22.10
2023-03-13T16:16:01.395Z,22.10
2023-03-13T16:18:29.638Z,22.00
2023-03-13T16:20:57.773Z,22.00
2023-03-13T16:23:25.937Z,21.90
2023-03-13T16:25:54.207Z,21.80
2023-03-13T16:28:23.750Z,21.60
2023-03-13T16:30:51.908Z,21.40
2023-03-13T16:33:20.061Z,21.40
2023-03-13T16:35:48.206Z,21.30
2023-03-13T16:38:16.319Z,21.20
2023-03-13T16:40:44.459Z,21.20
2023-03-13T16:43:13.743Z,21.10
2023-03-13T16:45:43.590Z,21.00
2023-03-13T16:48:24.638Z,21.00
2023-03-13T16:50:52.762Z,21.10
2023-03-13T16:53:20.850Z,21.00
2023-03-13T16:55:48.949Z,20.90
2023-03-13T16:58:17.119Z,20.70
2023-03-13T17:00:59.315Z,20.50
2023-03-13T17:03:32.657Z,20.40
2023-03-13T17:06:00.796Z,20.30
2023-03-13T17:08:28.953Z,20.00
2023-03-13T17:10:57.133Z,19.80
2023-03-13T17:13:25.560Z,19.60
2023-03-13T17:15:55.163Z,19.30
2023-03-13T17:18:23.299Z,19.20
2023-03-13T17:20:51.377Z,19.20
2023-03-13T17:23:19.602Z,19.00
2023-03-13T17:25:48.247Z,18.80
2023-03-13T17:28:16.349Z,18.70
2023-03-13T17:30:44.582Z,18.60
2023-03-13T17:33:14.069Z,18.40
2023-03-13T17:35:42.245Z,18.30
2023-03-13T17:38:11.810Z,18.10
2023-03-13T17:40:41.692Z,17.90
2023-03-13T17:43:09.946Z,17.80
2023-03-13T17:45:38.127Z,17.80
2023-03-13T17:48:11.698Z,17.70
2023-03-13T17:50:41.266Z,17.70
2023-03-13T17:53:09.547Z,17.60
2023-03-13T17:55:37.696Z,17.70
2023-03-13T17:58:05.938Z,17.80
2023-03-13T18:00:34.095Z,17.80
2023-03-13T18:03:02.656Z,17.90
2023-03-13T18:05:30.794Z,18.30
2023-03-13T18:08:00.338Z,18.60
2023-03-13T18:10:30.569Z,18.90
2023-03-13T18:12:58.745Z,19.20
2023-03-13T18:15:27.976Z,19.20
2023-03-13T18:17:56.199Z,19.20
2023-03-13T18:20:26.989Z,19.20
2023-03-13T18:22:59.386Z,19.20
2023-03-13T18:25:29.857Z,19.20
2023-03-13T18:27:58.273Z,19.10
2023-03-13T18:30:28.354Z,19.10
2023-03-13T18:32:57.591Z,19.00
2023-03-13T18:35:26.108Z,19.00
2023-03-13T18:37:54.407Z,18.90
2023-03-13T18:40:25.582Z,18.90
2023-03-13T18:42:55.107Z,18.90
2023-03-13T18:45:25.273Z,18.90
2023-03-13T18:47:53.454Z,18.80
2023-03-13T18:50:26.360Z,18.80
2023-03-13T18:52:55.534Z,18.70
2023-03-13T18:55:24.286Z,18.70
2023-03-13T18:57:52.492Z,18.70
2023-03-13T19:00:24.709Z,18.60
2023-03-13T19:02:53.020Z,18.60
2023-03-13T19:05:21.694Z,18.60
2023-03-13T19:07:50.032Z,18.60
2023-03-13T19:10:21.266Z,18.40
2023-03-13T19:12:49.525Z,18.40
2023-03-13T19:15:18.333Z,18.40
2023-03-13T19:17:47.823Z,18.10
2023-03-13T19:20:17.612Z,17.00
2023-03-13T19:22:46.035Z,16.40
2023-03-13T19:25:17.120Z,16.10
2023-03-13T19:27:45.769Z,15.80
2023-03-13T19:30:18.731Z,15.60
2023-03-13T19:32:48.264Z,15.20
2023-03-13T19:35:19.147Z,14.70
2023-03-13T19:37:47.729Z,14.50
2023-03-13T19:40:21.352Z,14.30
2023-03-13T19:42:49.508Z,14.10
2023-03-13T19:45:19.767Z,13.90
2023-03-13T19:47:49.627Z,13.80
2023-03-13T19:50:19.585Z,13.80
2023-03-13T19:52:47.935Z,13.50
2023-03-13T19:55:16.524Z,12.80
2023-03-13T19:57:44.769Z,11.90
2023-03-13T20:00:20.249Z,11.30
2023-03-13T20:02:52.058Z,10.90
2023-03-13T20:05:20.501Z,10.80
2023-03-13T20:07:48.832Z,10.50
2023-03-13T20:10:17.290Z,10.40
2023-03-13T20:12:45.469Z,10.40
2023-03-13T20:15:13.877Z,10.50
2023-03-13T20:17:42.006Z,10.50
2023-03-13T20:20:13.793Z,10.40
2023-03-13T20:22:42.155Z,10.50
2023-03-13T20:25:10.990Z,10.80
2023-03-13T20:27:39.746Z,10.80
2023-03-13T20:30:09.279Z,10.80
2023-03-13T20:32:41.204Z,10.70
2023-03-13T20:35:15.804Z,10.60
2023-03-13T20:37:43.945Z,10.50
2023-03-13T20:40:13.262Z,10.50
2023-03-13T20:42:41.466Z,10.50
2023-03-13T20:45:10.653Z,10.70
2023-03-13T20:47:38.800Z,10.80
2023-03-13T20:50:07.816Z,10.80
2023-03-13T20:52:37.304Z,10.80
2023-03-13T20:55:06.067Z,10.60
2023-03-13T20:57:34.155Z,10.60
2023-03-13T21:00:02.339Z,10.40
2023-03-13T21:02:30.489Z,10.30
2023-03-13T21:04:59.103Z,10.20
2023-03-13T21:07:28.683Z,10.30
2023-03-13T21:09:58.204Z,10.40
2023-03-13T21:12:26.335Z,10.50
2023-03-13T21:14:54.993Z,10.50
2023-03-13T21:17:23.111Z,10.60
2023-03-13T21:19:51.225Z,10.80
2023-03-13T21:22:19.498Z,10.80
2023-03-13T21:24:49.579Z,10.80
2023-03-13T21:27:19.070Z,10.80
2023-03-13T21:29:47.327Z,10.70
2023-03-13T21:32:16.035Z,10.70
2023-03-13T21:34:44.485Z,10.70
2023-03-13T21:37:12.972Z,10.80
2023-03-13T21:39:42.213Z,10.70
2023-03-13T21:42:12.723Z,10.80
2023-03-13T21:44:42.270Z,10.70
2023-03-13T21:47:10.556Z,10.70
2023-03-13T21:49:39.865Z,10.60
2023-03-13T21:52:08.090Z,10.70
2023-03-13T21:54:36.207Z,10.70
2023-03-13T21:57:04.567Z,10.70
2023-03-13T21:59:32.741Z,10.70
2023-03-13T22:02:02.288Z,10.70
2023-03-13T22:04:30.414Z,10.80
2023-03-13T22:06:58.503Z,10.80
2023-03-13T22:09:26.683Z,10.80
2023-03-13T22:11:54.844Z,10.80
2023-03-13T22:14:22.985Z,10.80
2023-03-13T22:16:51.141Z,10.80
2023-03-13T22:19:20.638Z,10.90
2023-03-13T22:21:48.797Z,10.80
2023-03-13T22:24:17.003Z,10.90
2023-03-13T22:26:45.165Z,10.90
2023-03-13T22:29:13.299Z,10.80
2023-03-13T22:31:41.460Z,11.00
2023-03-13T22:34:09.580Z,11.00
2023-03-13T22:36:39.115Z,11.20
2023-03-13T22:39:07.412Z,11.20
2023-03-13T22:41:35.538Z,11.20
2023-03-13T22:44:03.644Z,11.30
2023-03-13T22:46:31.877Z,11.30
2023-03-13T22:48:59.949Z,11.30
2023-03-13T22:51:28.243Z,11.30
2023-03-13T22:53:57.730Z,11.30
2023-03-13T22:56:27.913Z,11.20
2023-03-13T22:58:56.100Z,11.10
2023-03-13T23:01:24.320Z,11.20
2023-03-13T23:03:52.559Z,11.10
2023-03-13T23:06:24.330Z,11.10
2023-03-13T23:08:52.536Z,11.10
2023-03-13T23:11:22.098Z,11.10
2023-03-13T23:13:50.261Z,11.20
2023-03-13T23:16:18.541Z,11.20
2023-03-13T23:18:46.764Z,11.00
2023-03-13T23:21:16.053Z,11.00
2023-03-13T23:23:44.637Z,11.10
2023-03-13T23:26:15.424Z,11.30
2023-03-13T23:28:45.077Z,11.20
2023-03-13T23:31:15.326Z,11.10
2023-03-13T23:33:43.747Z,11.20
2023-03-13T23:36:17.117Z,11.30
2023-03-13T23:38:45.860Z,11.30
2023-03-13T23:41:15.184Z,11.30
2023-03-13T23:43:44.706Z,11.30
2023-03-13T23:46:20.653Z,11.30
2023-03-13T23:48:48.827Z,11.30
2023-03-13T23:51:16.887Z,11.30
2023-03-13T23:53:45.406Z,11.30
2023-03-13T23:56:14.031Z,11.30
2023-03-13T23:58:44.576Z,11.30
